createdAt,value
2018-01-30T00:00:30.360Z,1014.34
2018-01-30T00:01:30.318Z,1014.30
2018-01-30T00:02:30.277Z,1014.30
2018-01-30T00:03:30.237Z,1014.29
2018-01-30T00:04:30.190Z,1014.35
2018-01-30T00:05:30.153Z,1014.29
2018-01-30T00:06:30.113Z,1014.31
2018-01-30T00:07:30.072Z,1014.28
2018-01-30T00:08:30.029Z,1014.28
2018-01-30T00:09:29.987Z,1014.33
2018-01-30T00:10:29.944Z,1014.25
2018-01-30T00:11:29.906Z,1014.28
2018-01-30T00:12:29.881Z,1014.22
2018-01-30T00:13:29.843Z,1014.27
2018-01-30T00:14:29.786Z,1014.21
2018-01-30T00:15:29.742Z,1014.22
2018-01-30T00:16:29.709Z,1014.18
2018-01-30T00:17:29.669Z,1014.30
2018-01-30T00:18:29.622Z,1014.28
2018-01-30T00:19:29.584Z,1014.36
2018-01-30T00:20:29.546Z,1014.41
2018-01-30T00:21:29.500Z,1014.52
2018-01-30T00:22:29.456Z,1014.58
2018-01-30T00:23:29.417Z,1014.44
2018-01-30T00:24:29.376Z,1014.50
2018-01-30T00:25:29.331Z,1014.49
2018-01-30T00:26:29.300Z,1014.70
2018-01-30T00:27:29.252Z,1014.65
2018-01-30T00:28:29.207Z,1014.68
2018-01-30T00:29:29.169Z,1014.73
2018-01-30T00:30:29.136Z,1014.76
2018-01-30T00:31:29.092Z,1014.78
2018-01-30T00:32:29.053Z,1014.76
2018-01-30T00:33:29.027Z,1014.72
2018-01-30T00:34:28.962Z,1014.86
2018-01-30T00:35:28.924Z,1014.91
2018-01-30T00:36:28.884Z,1014.83
2018-01-30T00:37:28.848Z,1014.88
2018-01-30T00:38:28.798Z,1014.86
2018-01-30T00:39:28.758Z,1014.76
2018-01-30T00:40:28.727Z,1014.80
2018-01-30T00:41:28.678Z,1014.89
2018-01-30T00:42:28.645Z,1014.93
2018-01-30T00:43:28.618Z,1014.95
2018-01-30T00:44:28.556Z,1014.86
2018-01-30T00:45:28.518Z,1015.09
2018-01-30T00:46:28.478Z,1014.98
2018-01-30T00:47:28.430Z,1014.98
2018-01-30T00:48:28.393Z,1014.86
2018-01-30T00:49:28.347Z,1015.06
2018-01-30T00:50:28.308Z,1015.08
2018-01-30T00:51:28.272Z,1014.99
2018-01-30T00:52:28.270Z,1015.09
2018-01-30T00:53:28.188Z,1015.19
2018-01-30T00:54:28.166Z,1015.13
2018-01-30T00:55:28.111Z,1015.11
2018-01-30T00:56:28.066Z,1015.20
2018-01-30T00:57:28.023Z,1015.15
2018-01-30T00:58:27.982Z,1015.33
2018-01-30T00:59:27.935Z,1015.30
2018-01-30T01:00:27.906Z,1015.38
2018-01-30T01:01:27.892Z,1015.40
2018-01-30T01:02:27.813Z,1015.41
2018-01-30T01:03:27.775Z,1015.37
2018-01-30T01:04:27.730Z,1015.39
2018-01-30T01:05:27.757Z,1015.36
2018-01-30T01:06:27.656Z,1015.35
2018-01-30T01:07:27.625Z,1015.43
2018-01-30T01:08:27.583Z,1015.43
2018-01-30T01:09:27.535Z,1015.42
2018-01-30T01:10:27.498Z,1015.41
2018-01-30T01:11:27.453Z,1015.43
2018-01-30T01:12:27.413Z,1015.48
2018-01-30T01:13:27.370Z,1015.59
2018-01-30T01:14:27.319Z,1015.56
2018-01-30T01:15:27.295Z,1015.65
2018-01-30T01:16:27.238Z,1015.55
2018-01-30T01:17:27.204Z,1015.61
2018-01-30T01:18:27.159Z,1015.46
2018-01-30T01:19:27.116Z,1015.56
2018-01-30T01:20:27.079Z,1015.45
2018-01-30T01:21:27.039Z,1015.65
2018-01-30T01:22:26.999Z,1015.68
2018-01-30T01:23:26.946Z,1015.70
2018-01-30T01:24:26.921Z,1015.66
2018-01-30T01:25:26.878Z,1015.66
2018-01-30T01:26:26.835Z,1015.60
2018-01-30T01:27:26.789Z,1015.66
2018-01-30T01:28:26.747Z,1015.73
2018-01-30T01:29:26.704Z,1015.68
2018-01-30T01:30:26.661Z,1015.74
2018-01-30T01:31:26.623Z,1015.77
2018-01-30T01:32:26.579Z,1015.73
2018-01-30T01:33:26.548Z,1015.73
2018-01-30T01:34:26.500Z,1015.78
2018-01-30T01:35:26.458Z,1015.75
2018-01-30T01:36:26.418Z,1015.78
2018-01-30T01:37:26.379Z,1015.74
2018-01-30T01:38:26.337Z,1015.88
2018-01-30T01:39:26.310Z,1015.97
2018-01-30T01:40:26.253Z,1015.89
2018-01-30T01:41:26.214Z,1015.88
2018-01-30T01:42:26.170Z,1015.91
2018-01-30T01:43:26.129Z,1015.96
2018-01-30T01:44:26.086Z,1015.79
2018-01-30T01:45:26.045Z,1015.95
2018-01-30T01:46:26.010Z,1015.97
2018-01-30T01:47:25.970Z,1015.95
2018-01-30T01:48:25.923Z,1015.86
2018-01-30T01:49:25.880Z,1015.86
2018-01-30T01:50:25.839Z,1016.02
2018-01-30T01:51:25.810Z,1015.89
2018-01-30T01:52:25.759Z,1015.95
2018-01-30T01:53:25.719Z,1015.93
2018-01-30T01:54:25.679Z,1015.93
2018-01-30T01:55:25.649Z,1015.98
2018-01-30T01:56:25.594Z,1016.06
2018-01-30T01:57:25.553Z,1016.00
2018-01-30T01:58:25.511Z,1016.02
2018-01-30T01:59:25.472Z,1015.98
2018-01-30T02:00:25.430Z,1016.08
2018-01-30T02:01:25.387Z,1016.14
2018-01-30T02:02:25.347Z,1016.15
2018-01-30T02:03:25.307Z,1016.02
2018-01-30T02:04:25.264Z,1016.10
2018-01-30T02:05:25.229Z,1015.95
2018-01-30T02:06:25.183Z,1016.02
2018-01-30T02:07:25.139Z,1016.00
2018-01-30T02:08:25.101Z,1016.03
2018-01-30T02:09:25.056Z,1016.04
2018-01-30T02:10:25.029Z,1016.11
2018-01-30T02:11:24.979Z,1016.08
2018-01-30T02:12:24.932Z,1016.18
2018-01-30T02:13:24.892Z,1016.18
2018-01-30T02:14:24.854Z,1016.25
2018-01-30T02:15:24.809Z,1016.19
2018-01-30T02:16:24.773Z,1016.21
2018-01-30T02:17:24.737Z,1016.34
2018-01-30T02:18:24.690Z,1016.38
2018-01-30T02:19:24.649Z,1016.35
2018-01-30T02:20:24.608Z,1016.33
2018-01-30T02:21:24.568Z,1016.34
2018-01-30T02:22:24.522Z,1016.34
2018-01-30T02:23:24.482Z,1016.40
2018-01-30T02:24:24.438Z,1016.34
2018-01-30T02:25:24.400Z,1016.35
2018-01-30T02:26:24.364Z,1016.35
2018-01-30T02:27:24.328Z,1016.32
2018-01-30T02:28:24.278Z,1016.38
2018-01-30T02:29:24.239Z,1016.38
2018-01-30T02:30:24.198Z,1016.42
2018-01-30T02:31:24.156Z,1016.37
2018-01-30T02:32:24.116Z,1016.44
2018-01-30T02:33:24.075Z,1016.49
2018-01-30T02:34:24.034Z,1016.46
2018-01-30T02:35:23.991Z,1016.45
2018-01-30T02:36:23.951Z,1016.50
2018-01-30T02:37:23.907Z,1016.51
2018-01-30T02:38:23.865Z,1016.52
2018-01-30T02:39:23.824Z,1016.53
2018-01-30T02:40:23.783Z,1016.58
2018-01-30T02:41:23.742Z,1016.61
2018-01-30T02:42:23.705Z,1016.58
2018-01-30T02:43:23.671Z,1016.61
2018-01-30T02:44:23.619Z,1016.64
2018-01-30T02:45:23.583Z,1016.61
2018-01-30T02:46:23.544Z,1016.63
2018-01-30T02:47:23.497Z,1016.66
2018-01-30T02:48:23.453Z,1016.64
2018-01-30T02:49:23.418Z,1016.66
2018-01-30T02:50:23.371Z,1016.73
2018-01-30T02:51:23.331Z,1016.78
2018-01-30T02:52:23.302Z,1016.76
2018-01-30T02:53:23.250Z,1016.70
2018-01-30T02:54:23.213Z,1016.77
2018-01-30T02:55:23.167Z,1016.78
2018-01-30T02:56:23.125Z,1016.72
2018-01-30T02:57:23.094Z,1016.68
2018-01-30T02:58:23.043Z,1016.66
2018-01-30T02:59:23.006Z,1016.77
2018-01-30T03:00:22.960Z,1016.76
2018-01-30T03:01:22.922Z,1016.74
2018-01-30T03:02:22.891Z,1016.81
2018-01-30T03:03:22.838Z,1016.86
2018-01-30T03:04:22.800Z,1016.86
2018-01-30T03:05:22.754Z,1016.88
2018-01-30T03:06:22.718Z,1016.85
2018-01-30T03:07:22.679Z,1016.93
2018-01-30T03:08:22.650Z,1017.01
2018-01-30T03:09:22.592Z,1016.95
2018-01-30T03:10:22.553Z,1017.00
2018-01-30T03:11:22.509Z,1017.03
2018-01-30T03:12:22.467Z,1016.95
2018-01-30T03:13:22.440Z,1016.97
2018-01-30T03:14:22.387Z,1016.90
2018-01-30T03:15:22.354Z,1016.92
2018-01-30T03:16:22.307Z,1016.91
2018-01-30T03:17:22.264Z,1017.07
2018-01-30T03:18:22.221Z,1017.05
2018-01-30T03:19:22.180Z,1017.10
2018-01-30T03:20:22.141Z,1017.11
2018-01-30T03:21:22.098Z,1017.19
2018-01-30T03:22:22.062Z,1017.13
2018-01-30T03:23:22.024Z,1017.12
2018-01-30T03:24:21.974Z,1017.21
2018-01-30T03:25:21.936Z,1017.21
2018-01-30T03:26:21.895Z,1017.21
2018-01-30T03:27:21.855Z,1017.23
2018-01-30T03:28:21.812Z,1017.25
2018-01-30T03:29:21.780Z,1017.24
2018-01-30T03:30:21.734Z,1017.21
2018-01-30T03:31:21.695Z,1017.23
2018-01-30T03:32:21.648Z,1017.29
2018-01-30T03:33:21.610Z,1017.26
2018-01-30T03:34:21.566Z,1017.23
2018-01-30T03:35:21.549Z,1017.22
2018-01-30T03:36:21.503Z,1017.27
2018-01-30T03:37:21.478Z,1017.30
2018-01-30T03:38:21.400Z,1017.28
2018-01-30T03:39:21.369Z,1017.24
2018-01-30T03:40:21.349Z,1017.20
2018-01-30T03:41:21.284Z,1017.21
2018-01-30T03:42:21.236Z,1017.23
2018-01-30T03:43:21.193Z,1017.21
2018-01-30T03:44:21.161Z,1017.27
2018-01-30T03:45:21.128Z,1017.27
2018-01-30T03:46:21.136Z,1017.28
2018-01-30T03:47:21.029Z,1017.31
2018-01-30T03:48:20.997Z,1017.28
2018-01-30T03:49:20.953Z,1017.35
2018-01-30T03:50:20.919Z,1017.42
2018-01-30T03:51:20.866Z,1017.31
2018-01-30T03:52:20.833Z,1017.26
2018-01-30T03:53:20.781Z,1017.32
2018-01-30T03:54:20.748Z,1017.27
2018-01-30T03:55:20.702Z,1017.32
2018-01-30T03:56:20.665Z,1017.27
2018-01-30T03:57:20.627Z,1017.28
2018-01-30T03:58:20.589Z,1017.21
2018-01-30T03:59:20.537Z,1017.34
2018-01-30T04:00:20.499Z,1017.29
2018-01-30T04:01:20.459Z,1017.28
2018-01-30T04:02:20.410Z,1017.41
2018-01-30T04:03:20.375Z,1017.41
2018-01-30T04:04:20.335Z,1017.32
2018-01-30T04:05:20.292Z,1017.32
2018-01-30T04:06:20.250Z,1017.23
2018-01-30T04:07:20.209Z,1017.31
2018-01-30T04:08:20.165Z,1017.32
2018-01-30T04:09:20.133Z,1017.29
2018-01-30T04:10:20.093Z,1017.29
2018-01-30T04:11:20.045Z,1017.45
2018-01-30T04:12:20.005Z,1017.39
2018-01-30T04:13:19.964Z,1017.56
2018-01-30T04:14:19.926Z,1017.33
2018-01-30T04:15:19.880Z,1017.39
2018-01-30T04:16:19.840Z,1017.40
2018-01-30T04:17:19.798Z,1017.45
2018-01-30T04:18:19.756Z,1017.28
2018-01-30T04:19:19.714Z,1017.40
2018-01-30T04:20:19.676Z,1017.43
2018-01-30T04:21:19.630Z,1017.42
2018-01-30T04:22:19.605Z,1017.32
2018-01-30T04:23:19.550Z,1017.38
2018-01-30T04:24:19.505Z,1017.46
2018-01-30T04:25:19.470Z,1017.47
2018-01-30T04:26:19.427Z,1017.49
2018-01-30T04:27:19.384Z,1017.46
2018-01-30T04:28:19.346Z,1017.53
2018-01-30T04:29:19.303Z,1017.54
2018-01-30T04:30:19.260Z,1017.50
2018-01-30T04:31:19.229Z,1017.54
2018-01-30T04:32:19.175Z,1017.54
2018-01-30T04:33:19.136Z,1017.49
2018-01-30T04:34:19.094Z,1017.53
2018-01-30T04:35:19.056Z,1017.53
2018-01-30T04:36:19.011Z,1017.50
2018-01-30T04:37:18.988Z,1017.56
2018-01-30T04:38:18.938Z,1017.55
2018-01-30T04:39:18.889Z,1017.59
2018-01-30T04:40:18.852Z,1017.61
2018-01-30T04:41:18.812Z,1017.55
2018-01-30T04:42:18.769Z,1017.51
2018-01-30T04:43:18.727Z,1017.58
2018-01-30T04:44:18.711Z,1017.57
2018-01-30T04:45:18.641Z,1017.59
2018-01-30T04:46:18.606Z,1017.59
2018-01-30T04:47:18.563Z,1017.65
2018-01-30T04:48:18.520Z,1017.62
2018-01-30T04:49:18.478Z,1017.71
2018-01-30T04:50:18.435Z,1017.64
2018-01-30T04:51:18.395Z,1017.68
2018-01-30T04:52:18.358Z,1017.64
2018-01-30T04:53:18.322Z,1017.67
2018-01-30T04:54:18.274Z,1017.65
2018-01-30T04:55:18.233Z,1017.68
2018-01-30T04:56:18.197Z,1017.72
2018-01-30T04:57:18.152Z,1017.71
2018-01-30T04:58:18.110Z,1017.70
2018-01-30T04:59:18.072Z,1017.66
2018-01-30T05:00:18.032Z,1017.81
2018-01-30T05:01:17.998Z,1017.82
2018-01-30T05:02:17.943Z,1017.81
2018-01-30T05:03:17.904Z,1017.86
2018-01-30T05:04:17.863Z,1017.87
2018-01-30T05:05:17.822Z,1017.88
2018-01-30T05:06:17.781Z,1017.91
2018-01-30T05:07:17.745Z,1017.93
2018-01-30T05:08:17.703Z,1017.90
2018-01-30T05:09:17.661Z,1017.87
2018-01-30T05:10:17.616Z,1017.89
2018-01-30T05:11:17.577Z,1017.84
2018-01-30T05:12:17.535Z,1017.85
2018-01-30T05:13:17.495Z,1017.90
2018-01-30T05:14:17.474Z,1017.93
2018-01-30T05:15:17.410Z,1017.92
2018-01-30T05:16:17.380Z,1017.92
2018-01-30T05:17:17.331Z,1017.89
2018-01-30T05:18:17.290Z,1017.88
2018-01-30T05:19:17.258Z,1017.90
2018-01-30T05:20:17.206Z,1017.94
2018-01-30T05:21:17.174Z,1017.96
2018-01-30T05:22:17.126Z,1017.99
2018-01-30T05:23:17.084Z,1017.99
2018-01-30T05:24:17.041Z,1017.93
2018-01-30T05:25:17.002Z,1017.96
2018-01-30T05:26:16.963Z,1017.96
2018-01-30T05:27:16.921Z,1017.92
2018-01-30T05:28:16.876Z,1017.80
2018-01-30T05:29:16.836Z,1017.99
2018-01-30T05:30:16.795Z,1018.02
2018-01-30T05:31:16.753Z,1017.92
2018-01-30T05:32:16.714Z,1018.00
2018-01-30T05:33:16.671Z,1017.95
2018-01-30T05:34:16.628Z,1017.96
2018-01-30T05:35:16.588Z,1017.97
2018-01-30T05:36:16.552Z,1017.97
2018-01-30T05:37:16.514Z,1018.00
2018-01-30T05:38:16.466Z,1018.07
2018-01-30T05:39:16.426Z,1018.03
2018-01-30T05:40:16.381Z,1018.01
2018-01-30T05:41:16.347Z,1018.07
2018-01-30T05:42:16.342Z,1018.04
2018-01-30T05:43:16.256Z,1018.01
2018-01-30T05:44:16.220Z,1018.00
2018-01-30T05:45:16.177Z,1018.06
2018-01-30T05:46:16.147Z,1017.99
2018-01-30T05:47:16.100Z,1018.03
2018-01-30T05:48:16.049Z,1018.02
2018-01-30T05:49:16.014Z,1018.05
2018-01-30T05:50:15.971Z,1018.04
2018-01-30T05:51:15.935Z,1018.02
2018-01-30T05:52:15.914Z,1018.07
2018-01-30T05:53:15.847Z,1018.11
2018-01-30T05:54:15.817Z,1018.03
2018-01-30T05:55:15.766Z,1018.04
2018-01-30T05:56:15.736Z,1018.00
2018-01-30T05:57:15.688Z,1018.13
2018-01-30T05:58:15.640Z,1018.05
2018-01-30T05:59:15.602Z,1018.09
2018-01-30T06:00:15.559Z,1018.08
2018-01-30T06:01:15.527Z,1018.14
2018-01-30T06:02:15.481Z,1018.15
2018-01-30T06:03:15.437Z,1018.12
2018-01-30T06:04:15.397Z,1018.08
2018-01-30T06:05:15.369Z,1018.15
2018-01-30T06:06:15.318Z,1018.16
2018-01-30T06:07:15.287Z,1018.20
2018-01-30T06:08:15.227Z,1018.15
2018-01-30T06:09:15.189Z,1018.21
2018-01-30T06:10:15.154Z,1018.24
2018-01-30T06:11:15.137Z,1018.34
2018-01-30T06:12:15.066Z,1018.24
2018-01-30T06:13:15.023Z,1018.30
2018-01-30T06:14:14.987Z,1018.41
2018-01-30T06:15:14.965Z,1018.38
2018-01-30T06:16:14.939Z,1018.44
2018-01-30T06:17:14.900Z,1018.39
2018-01-30T06:18:14.840Z,1018.32
2018-01-30T06:19:14.788Z,1018.42
2018-01-30T06:20:14.747Z,1018.47
2018-01-30T06:21:14.699Z,1018.48
2018-01-30T06:22:14.653Z,1018.48
2018-01-30T06:23:14.611Z,1018.46
2018-01-30T06:24:14.565Z,1018.55
2018-01-30T06:25:14.537Z,1018.58
2018-01-30T06:26:14.489Z,1018.57
2018-01-30T06:27:14.448Z,1018.63
2018-01-30T06:28:14.404Z,1018.53
2018-01-30T06:29:14.363Z,1018.60
2018-01-30T06:30:14.321Z,1018.61
2018-01-30T06:31:14.284Z,1018.66
2018-01-30T06:32:14.249Z,1018.70
2018-01-30T06:33:14.198Z,1018.68
2018-01-30T06:34:14.160Z,1018.69
2018-01-30T06:35:14.122Z,1018.73
2018-01-30T06:36:14.075Z,1018.76
2018-01-30T06:37:14.041Z,1018.78
2018-01-30T06:38:13.993Z,1018.80
2018-01-30T06:39:13.951Z,1018.79
2018-01-30T06:40:13.910Z,1018.82
2018-01-30T06:41:13.868Z,1018.85
2018-01-30T06:42:13.831Z,1018.93
2018-01-30T06:43:13.787Z,1018.87
2018-01-30T06:44:13.767Z,1018.90
2018-01-30T06:45:13.712Z,1018.87
2018-01-30T06:46:13.660Z,1018.92
2018-01-30T06:47:13.631Z,1018.95
2018-01-30T06:48:13.615Z,1019.04
2018-01-30T06:49:13.540Z,1019.02
2018-01-30T06:50:13.498Z,1019.00
2018-01-30T06:51:13.461Z,1019.03
2018-01-30T06:52:13.412Z,1019.09
2018-01-30T06:53:13.383Z,1019.11
2018-01-30T06:54:13.341Z,1019.00
2018-01-30T06:55:13.299Z,1019.11
2018-01-30T06:56:13.265Z,1019.11
2018-01-30T06:57:13.210Z,1019.10
2018-01-30T06:58:13.171Z,1019.16
2018-01-30T06:59:13.131Z,1019.17
2018-01-30T07:00:13.105Z,1019.23
2018-01-30T07:01:13.045Z,1019.24
2018-01-30T07:02:13.013Z,1019.15
2018-01-30T07:03:12.969Z,1019.27
2018-01-30T07:04:12.930Z,1019.24
2018-01-30T07:05:12.898Z,1019.24
2018-01-30T07:06:12.842Z,1019.25
2018-01-30T07:07:12.802Z,1019.29
2018-01-30T07:08:12.775Z,1019.44
2018-01-30T07:09:12.732Z,1019.30
2018-01-30T07:10:12.686Z,1019.42
2018-01-30T07:11:12.642Z,1019.38
2018-01-30T07:12:12.604Z,1019.34
2018-01-30T07:13:12.559Z,1019.30
2018-01-30T07:14:12.514Z,1019.31
2018-01-30T07:15:12.479Z,1019.38
2018-01-30T07:16:12.450Z,1019.43
2018-01-30T07:17:12.403Z,1019.35
2018-01-30T07:18:12.351Z,1019.45
2018-01-30T07:19:12.307Z,1019.37
2018-01-30T07:20:12.274Z,1019.41
2018-01-30T07:21:12.233Z,1019.46
2018-01-30T07:22:12.193Z,1019.45
2018-01-30T07:23:12.146Z,1019.36
2018-01-30T07:24:12.103Z,1019.53
2018-01-30T07:25:12.071Z,1019.40
2018-01-30T07:26:12.023Z,1019.48
2018-01-30T07:27:11.985Z,1019.55
2018-01-30T07:28:11.940Z,1019.50
2018-01-30T07:29:11.898Z,1019.55
2018-01-30T07:30:11.869Z,1019.49
2018-01-30T07:31:11.819Z,1019.48
2018-01-30T07:32:11.776Z,1019.51
2018-01-30T07:33:11.747Z,1019.54
2018-01-30T07:34:11.694Z,1019.64
2018-01-30T07:35:11.664Z,1019.69
2018-01-30T07:36:11.613Z,1019.63
2018-01-30T07:37:11.576Z,1019.69
2018-01-30T07:38:11.545Z,1019.74
2018-01-30T07:39:11.501Z,1019.74
2018-01-30T07:40:11.448Z,1019.79
2018-01-30T07:41:11.408Z,1019.74
2018-01-30T07:42:11.368Z,1019.72
2018-01-30T07:43:11.326Z,1019.75
2018-01-30T07:44:11.286Z,1019.76
2018-01-30T07:45:11.246Z,1019.76
2018-01-30T07:46:11.203Z,1019.76
2018-01-30T07:47:11.163Z,1019.82
2018-01-30T07:48:11.124Z,1019.85
2018-01-30T07:49:11.089Z,1019.88
2018-01-30T07:50:11.040Z,1019.83
2018-01-30T07:51:11.003Z,1019.94
2018-01-30T07:52:10.960Z,1019.90
2018-01-30T07:53:10.920Z,1019.96
2018-01-30T07:54:10.880Z,1019.97
2018-01-30T07:55:10.839Z,1019.88
2018-01-30T07:56:10.800Z,1019.97
2018-01-30T07:57:10.762Z,1019.95
2018-01-30T07:58:10.761Z,1019.96
2018-01-30T07:59:10.675Z,1020.03
2018-01-30T08:00:10.639Z,1019.99
2018-01-30T08:01:10.591Z,1020.05
2018-01-30T08:02:10.556Z,1019.89
2018-01-30T08:03:10.520Z,1019.94
2018-01-30T08:04:10.470Z,1019.92
2018-01-30T08:05:10.430Z,1020.00
2018-01-30T08:06:10.484Z,1020.00
2018-01-30T08:07:10.352Z,1019.98
2018-01-30T08:08:10.318Z,1019.98
2018-01-30T08:09:10.275Z,1019.95
2018-01-30T08:10:10.496Z,1019.99
2018-01-30T08:11:10.192Z,1020.01
2018-01-30T08:12:10.150Z,1019.97
2018-01-30T08:13:10.116Z,1020.01
2018-01-30T08:14:10.064Z,1019.97
2018-01-30T08:15:10.055Z,1020.00
2018-01-30T08:16:10.011Z,1019.98
2018-01-30T08:17:09.946Z,1019.92
2018-01-30T08:18:09.941Z,1019.97
2018-01-30T08:19:09.869Z,1019.98
2018-01-30T08:20:09.838Z,1020.04
2018-01-30T08:21:09.787Z,1019.98
2018-01-30T08:22:09.753Z,1020.00
2018-01-30T08:23:09.715Z,1020.05
2018-01-30T08:24:09.692Z,1019.99
2018-01-30T08:25:09.619Z,1020.03
2018-01-30T08:26:09.596Z,1019.88
2018-01-30T08:27:09.536Z,1019.98
2018-01-30T08:28:09.497Z,1019.95
2018-01-30T08:29:09.455Z,1020.01
2018-01-30T08:30:09.465Z,1020.07
2018-01-30T08:31:09.379Z,1020.10
2018-01-30T08:32:09.364Z,1020.00
2018-01-30T08:33:09.301Z,1019.97
2018-01-30T08:34:09.276Z,1020.00
2018-01-30T08:35:09.223Z,1020.08
2018-01-30T08:36:09.184Z,1020.01
2018-01-30T08:37:09.130Z,1020.07
2018-01-30T08:38:09.100Z,1020.07
2018-01-30T08:39:09.097Z,1020.01
2018-01-30T08:40:09.009Z,1020.14
2018-01-30T08:41:09.484Z,1020.21
2018-01-30T08:42:08.971Z,1020.20
2018-01-30T08:43:08.888Z,1020.19
2018-01-30T08:44:08.868Z,1020.25
2018-01-30T08:45:08.824Z,1020.27
2018-01-30T08:46:08.776Z,1020.20
2018-01-30T08:47:08.739Z,1020.23
2018-01-30T08:48:08.685Z,1020.16
2018-01-30T08:49:08.653Z,1020.17
2018-01-30T08:50:08.610Z,1020.24
2018-01-30T08:51:08.576Z,1020.25
2018-01-30T08:52:08.520Z,1020.27
2018-01-30T08:53:08.480Z,1020.30
2018-01-30T08:54:08.460Z,1020.27
2018-01-30T08:55:08.397Z,1020.32
2018-01-30T08:56:08.365Z,1020.29
2018-01-30T08:57:08.327Z,1020.33
2018-01-30T08:58:08.292Z,1020.37
2018-01-30T08:59:08.246Z,1020.30
2018-01-30T09:00:08.205Z,1020.29
2018-01-30T09:01:08.160Z,1020.31
2018-01-30T09:02:08.127Z,1020.27
2018-01-30T09:03:08.092Z,1020.31
2018-01-30T09:04:08.040Z,1020.30
2018-01-30T09:05:07.995Z,1020.31
2018-01-30T09:06:07.974Z,1020.26
2018-01-30T09:07:07.919Z,1020.24
2018-01-30T09:08:07.878Z,1020.26
2018-01-30T09:09:07.835Z,1020.33
2018-01-30T09:10:07.804Z,1020.30
2018-01-30T09:11:07.905Z,1020.40
2018-01-30T09:12:07.731Z,1020.37
2018-01-30T09:13:07.693Z,1020.50
2018-01-30T09:14:07.635Z,1020.51
2018-01-30T09:15:07.595Z,1020.52
2018-01-30T09:16:07.551Z,1020.60
2018-01-30T09:17:07.515Z,1020.57
2018-01-30T09:18:07.470Z,1020.58
2018-01-30T09:19:07.430Z,1020.60
2018-01-30T09:20:07.461Z,1020.64
2018-01-30T09:21:07.349Z,1020.63
2018-01-30T09:22:07.313Z,1020.59
2018-01-30T09:23:07.270Z,1020.58
2018-01-30T09:24:07.229Z,1020.56
2018-01-30T09:25:07.188Z,1020.52
2018-01-30T09:26:07.151Z,1020.58
2018-01-30T09:27:07.116Z,1020.56
2018-01-30T09:28:07.069Z,1020.67
2018-01-30T09:29:07.034Z,1020.61
2018-01-30T09:30:06.986Z,1020.57
2018-01-30T09:31:06.945Z,1020.67
2018-01-30T09:32:06.911Z,1020.65
2018-01-30T09:33:06.871Z,1020.71
2018-01-30T09:34:06.822Z,1020.83
2018-01-30T09:35:06.785Z,1020.75
2018-01-30T09:36:06.751Z,1020.74
2018-01-30T09:37:06.708Z,1020.74
2018-01-30T09:38:06.673Z,1020.78
2018-01-30T09:39:06.622Z,1020.75
2018-01-30T09:40:06.584Z,1020.75
2018-01-30T09:41:06.545Z,1020.81
2018-01-30T09:42:06.502Z,1020.83
2018-01-30T09:43:06.460Z,1020.77
2018-01-30T09:44:06.419Z,1020.78
2018-01-30T09:45:06.382Z,1020.73
2018-01-30T09:46:06.341Z,1020.75
2018-01-30T09:47:06.301Z,1020.80
2018-01-30T09:48:06.268Z,1020.85
2018-01-30T09:49:06.228Z,1020.89
2018-01-30T09:50:06.183Z,1020.85
2018-01-30T09:51:06.149Z,1020.81
2018-01-30T09:52:06.111Z,1020.88
2018-01-30T09:53:06.068Z,1020.87
2018-01-30T09:54:06.026Z,1020.89
2018-01-30T09:55:05.980Z,1020.97
2018-01-30T09:56:05.947Z,1020.96
2018-01-30T09:57:05.900Z,1020.91
2018-01-30T09:58:05.862Z,1020.86
2018-01-30T09:59:05.815Z,1020.91
2018-01-30T10:00:05.779Z,1020.84
2018-01-30T10:01:05.740Z,1020.94
2018-01-30T10:02:05.705Z,1020.87
2018-01-30T10:03:05.656Z,1020.91
2018-01-30T10:04:05.629Z,1020.87
2018-01-30T10:05:05.578Z,1020.94
2018-01-30T10:06:05.536Z,1020.95
2018-01-30T10:07:05.494Z,1020.94
2018-01-30T10:08:05.455Z,1020.85
2018-01-30T10:09:05.415Z,1020.86
2018-01-30T10:10:05.373Z,1020.87
2018-01-30T10:11:05.344Z,1020.83
2018-01-30T10:12:05.292Z,1020.76
2018-01-30T10:13:05.321Z,1020.86
2018-01-30T10:14:05.251Z,1020.88
2018-01-30T10:15:05.172Z,1020.85
2018-01-30T10:16:05.148Z,1020.79
2018-01-30T10:17:05.104Z,1020.85
2018-01-30T10:18:05.054Z,1020.84
2018-01-30T10:19:05.014Z,1020.89
2018-01-30T10:20:04.973Z,1020.80
2018-01-30T10:21:04.932Z,1020.86
2018-01-30T10:22:04.891Z,1020.79
2018-01-30T10:23:04.865Z,1020.87
2018-01-30T10:24:04.816Z,1020.87
2018-01-30T10:25:04.772Z,1020.86
2018-01-30T10:26:04.737Z,1020.87
2018-01-30T10:27:04.706Z,1020.79
2018-01-30T10:28:04.663Z,1020.94
2018-01-30T10:29:04.613Z,1020.85
2018-01-30T10:30:04.570Z,1020.89
2018-01-30T10:31:04.529Z,1020.93
2018-01-30T10:32:04.489Z,1020.92
2018-01-30T10:33:04.448Z,1020.83
2018-01-30T10:34:04.408Z,1020.95
2018-01-30T10:35:04.376Z,1020.92
2018-01-30T10:36:04.332Z,1020.93
2018-01-30T10:37:04.293Z,1020.91
2018-01-30T10:38:04.268Z,1020.88
2018-01-30T10:39:04.226Z,1020.93
2018-01-30T10:40:04.188Z,1020.87
2018-01-30T10:41:04.127Z,1020.81
2018-01-30T10:42:04.091Z,1020.86
2018-01-30T10:43:04.049Z,1020.85
2018-01-30T10:44:04.024Z,1020.88
2018-01-30T10:45:03.969Z,1020.93
2018-01-30T10:46:03.943Z,1020.87
2018-01-30T10:47:03.900Z,1020.85
2018-01-30T10:48:03.851Z,1020.96
2018-01-30T10:49:03.831Z,1020.96
2018-01-30T10:50:03.788Z,1020.96
2018-01-30T10:51:03.736Z,1020.91
2018-01-30T10:52:03.688Z,1020.92
2018-01-30T10:53:03.649Z,1020.87
2018-01-30T10:54:03.660Z,1020.84
2018-01-30T10:55:03.568Z,1020.96
2018-01-30T10:56:03.524Z,1020.90
2018-01-30T10:57:03.558Z,1020.89
2018-01-30T10:58:03.458Z,1020.90
2018-01-30T10:59:03.491Z,1020.93
2018-01-30T11:00:03.380Z,1020.98
2018-01-30T11:01:03.346Z,1021.01
2018-01-30T11:02:03.300Z,1020.97
2018-01-30T11:03:03.280Z,1020.96
2018-01-30T11:04:03.208Z,1020.98
2018-01-30T11:05:03.176Z,1021.08
2018-01-30T11:06:03.125Z,1021.03
2018-01-30T11:07:03.103Z,1020.97
2018-01-30T11:08:03.090Z,1021.04
2018-01-30T11:09:03.010Z,1021.07
2018-01-30T11:10:02.964Z,1021.16
2018-01-30T11:11:03.021Z,1021.17
2018-01-30T11:12:02.893Z,1021.19
2018-01-30T11:13:02.850Z,1021.13
2018-01-30T11:14:02.819Z,1021.16
2018-01-30T11:15:02.855Z,1021.21
2018-01-30T11:16:02.727Z,1021.10
2018-01-30T11:17:02.684Z,1021.15
2018-01-30T11:18:02.677Z,1021.21
2018-01-30T11:19:02.603Z,1021.23
2018-01-30T11:20:03.516Z,1021.18
2018-01-30T11:21:02.521Z,1021.22
2018-01-30T11:22:02.482Z,1021.34
2018-01-30T11:23:02.446Z,1021.29
2018-01-30T11:24:02.396Z,1021.40
2018-01-30T11:25:02.369Z,1021.42
2018-01-30T11:26:02.322Z,1021.40
2018-01-30T11:27:02.291Z,1021.39
2018-01-30T11:28:02.246Z,1021.31
2018-01-30T11:29:02.204Z,1021.37
2018-01-30T11:30:02.174Z,1021.34
2018-01-30T11:31:02.143Z,1021.27
2018-01-30T11:32:02.089Z,1021.28
2018-01-30T11:33:02.045Z,1021.26
2018-01-30T11:34:02.010Z,1021.29
2018-01-30T11:35:01.956Z,1021.34
2018-01-30T11:36:01.927Z,1021.33
2018-01-30T11:37:01.877Z,1021.19
2018-01-30T11:38:01.852Z,1021.17
2018-01-30T11:39:01.799Z,1021.09
2018-01-30T11:40:01.788Z,1021.17
2018-01-30T11:41:01.717Z,1021.25
2018-01-30T11:42:01.675Z,1021.19
2018-01-30T11:43:01.637Z,1021.18
2018-01-30T11:44:01.599Z,1021.12
2018-01-30T11:45:01.568Z,1021.17
2018-01-30T11:46:01.523Z,1021.22
2018-01-30T11:47:01.478Z,1021.23
2018-01-30T11:48:01.434Z,1021.17
2018-01-30T11:49:01.396Z,1021.21
2018-01-30T11:50:01.359Z,1021.24
2018-01-30T11:51:01.324Z,1021.25
2018-01-30T11:52:01.282Z,1021.28
2018-01-30T11:53:01.237Z,1021.29
2018-01-30T11:54:01.232Z,1021.27
2018-01-30T11:55:01.158Z,1021.34
2018-01-30T11:56:01.123Z,1021.39
2018-01-30T11:57:01.081Z,1021.41
2018-01-30T11:58:01.045Z,1021.26
2018-01-30T11:59:01.005Z,1021.36
2018-01-30T12:00:00.966Z,1021.46
2018-01-30T12:01:00.962Z,1021.47
2018-01-30T12:02:00.877Z,1021.51
2018-01-30T12:03:00.843Z,1021.58
2018-01-30T12:04:00.799Z,1021.41
2018-01-30T12:05:00.759Z,1021.39